Bellevue, Texas
Current Conditions -  °F | °C
As of 11:15 AM on Friday 24 Oct 2014 (Local Time) from K0F2 Reporting Station
Clear Clear  
Wind Chill: 73°   Ceiling: Unl
Heat Index: 73°   Visibility: 10mi
Dew Point: 61°   Wind: 8mph
Humidity: 66%   Direction: 180°S
Pressure: 30.15"   Gusts: NA
Location:  33.64°N, 98.01°W
Report Text: K0F2 241615Z AUTO 18007KT 10SM CLR 23/16 A3015 RMK AO2 T02280161
Loading
Personal Weather Stations






























Interactive Weather Map
Tropical Storm Tracking
New forecast layout! Learn more

10-Day Weather Forecast

Advertisements
Track Severe Weather on mobile